sensor_id;sensor_type;location;lat;lon;timestamp;P1;durP1;ratioP1;P2;durP2;ratioP2
53977;SDS011;39886;47.984;-1.586;2022-11-15T00:00:17;4.45;;;2.83;;
53977;SDS011;39886;47.984;-1.586;2022-11-15T00:02:43;3.78;;;2.30;;
53977;SDS011;39886;47.984;-1.586;2022-11-15T00:05:09;4.43;;;2.95;;
53977;SDS011;39886;47.984;-1.586;2022-11-15T00:07:34;5.32;;;2.45;;
53977;SDS011;39886;47.984;-1.586;2022-11-15T00:10:03;4.10;;;2.60;;
53977;SDS011;39886;47.984;-1.586;2022-11-15T00:12:29;3.53;;;2.53;;
53977;SDS011;39886;47.984;-1.586;2022-11-15T00:14:54;3.85;;;2.53;;
53977;SDS011;39886;47.984;-1.586;2022-11-15T00:17:20;3.80;;;2.20;;
53977;SDS011;39886;47.984;-1.586;2022-11-15T00:19:46;2.97;;;2.30;;
53977;SDS011;39886;47.984;-1.586;2022-11-15T00:22:11;4.28;;;2.42;;
53977;SDS011;39886;47.984;-1.586;2022-11-15T00:24:37;3.60;;;2.20;;
53977;SDS011;39886;47.984;-1.586;2022-11-15T00:27:03;3.92;;;2.55;;
53977;SDS011;39886;47.984;-1.586;2022-11-15T00:29:29;5.10;;;2.40;;
53977;SDS011;39886;47.984;-1.586;2022-11-15T00:31:54;4.85;;;2.70;;
53977;SDS011;39886;47.984;-1.586;2022-11-15T00:34:20;3.83;;;2.20;;
53977;SDS011;39886;47.984;-1.586;2022-11-15T00:36:46;3.55;;;2.40;;
53977;SDS011;39886;47.984;-1.586;2022-11-15T00:39:11;3.53;;;2.38;;
53977;SDS011;39886;47.984;-1.586;2022-11-15T00:41:37;3.13;;;2.10;;
53977;SDS011;39886;47.984;-1.586;2022-11-15T00:44:03;3.92;;;2.60;;
53977;SDS011;39886;47.984;-1.586;2022-11-15T00:46:29;3.67;;;2.25;;
53977;SDS011;39886;47.984;-1.586;2022-11-15T00:48:54;4.28;;;2.20;;
53977;SDS011;39886;47.984;-1.586;2022-11-15T00:51:20;3.88;;;2.35;;
53977;SDS011;39886;47.984;-1.586;2022-11-15T00:53:46;3.92;;;2.47;;
53977;SDS011;39886;47.984;-1.586;2022-11-15T00:56:12;3.40;;;2.30;;
53977;SDS011;39886;47.984;-1.586;2022-11-15T00:58:38;3.03;;;2.30;;
53977;SDS011;39886;47.984;-1.586;2022-11-15T01:01:07;3.60;;;2.17;;
53977;SDS011;39886;47.984;-1.586;2022-11-15T01:03:36;2.75;;;2.05;;
53977;SDS011;39886;47.984;-1.586;2022-11-15T01:06:03;4.95;;;2.28;;
53977;SDS011;39886;47.984;-1.586;2022-11-15T01:08:29;4.10;;;2.38;;
53977;SDS011;39886;47.984;-1.586;2022-11-15T01:11:00;3.95;;;2.20;;
53977;SDS011;39886;47.984;-1.586;2022-11-15T01:13:31;2.75;;;2.15;;
53977;SDS011;39886;47.984;-1.586;2022-11-15T01:15:57;3.40;;;2.08;;
53977;SDS011;39886;47.984;-1.586;2022-11-15T01:18:23;4.05;;;2.25;;
53977;SDS011;39886;47.984;-1.586;2022-11-15T01:20:49;3.50;;;2.13;;
53977;SDS011;39886;47.984;-1.586;2022-11-15T01:23:15;3.72;;;2.00;;
53977;SDS011;39886;47.984;-1.586;2022-11-15T01:25:41;4.55;;;1.95;;
53977;SDS011;39886;47.984;-1.586;2022-11-15T01:28:06;4.10;;;2.15;;
53977;SDS011;39886;47.984;-1.586;2022-11-15T01:30:32;4.18;;;2.13;;
53977;SDS011;39886;47.984;-1.586;2022-11-15T01:32:58;3.70;;;2.20;;
53977;SDS011;39886;47.984;-1.586;2022-11-15T01:35:23;3.00;;;1.98;;
53977;SDS011;39886;47.984;-1.586;2022-11-15T01:37:49;2.60;;;2.03;;
53977;SDS011;39886;47.984;-1.586;2022-11-15T01:40:15;3.22;;;2.30;;
53977;SDS011;39886;47.984;-1.586;2022-11-15T01:42:41;3.35;;;2.28;;
53977;SDS011;39886;47.984;-1.586;2022-11-15T01:45:10;3.63;;;2.03;;
53977;SDS011;39886;47.984;-1.586;2022-11-15T01:47:39;4.07;;;2.20;;
53977;SDS011;39886;47.984;-1.586;2022-11-15T01:50:10;4.03;;;1.80;;
53977;SDS011;39886;47.984;-1.586;2022-11-15T01:52:38;3.58;;;2.05;;
53977;SDS011;39886;47.984;-1.586;2022-11-15T01:55:16;3.17;;;2.15;;
53977;SDS011;39886;47.984;-1.586;2022-11-15T01:57:46;3.53;;;2.08;;
53977;SDS011;39886;47.984;-1.586;2022-11-15T02:00:17;3.13;;;1.95;;
53977;SDS011;39886;47.984;-1.586;2022-11-15T02:02:43;2.47;;;1.75;;
53977;SDS011;39886;47.984;-1.586;2022-11-15T02:05:09;2.90;;;1.92;;
53977;SDS011;39886;47.984;-1.586;2022-11-15T02:07:35;5.75;;;2.25;;
53977;SDS011;39886;47.984;-1.586;2022-11-15T02:10:02;3.75;;;1.83;;
53977;SDS011;39886;47.984;-1.586;2022-11-15T02:12:41;3.20;;;1.90;;
53977;SDS011;39886;47.984;-1.586;2022-11-15T02:15:07;3.13;;;2.10;;
53977;SDS011;39886;47.984;-1.586;2022-11-15T02:17:42;3.33;;;2.03;;
53977;SDS011;39886;47.984;-1.586;2022-11-15T02:26:02;3.55;;;2.10;;
53977;SDS011;39886;47.984;-1.586;2022-11-15T02:31:39;4.13;;;2.13;;
53977;SDS011;39886;47.984;-1.586;2022-11-15T02:37:16;3.63;;;2.03;;
53977;SDS011;39886;47.984;-1.586;2022-11-15T02:42:35;4.38;;;2.08;;
53977;SDS011;39886;47.984;-1.586;2022-11-15T02:45:27;3.33;;;2.05;;
53977;SDS011;39886;47.984;-1.586;2022-11-15T02:47:56;3.15;;;1.90;;
53977;SDS011;39886;47.984;-1.586;2022-11-15T02:50:27;5.05;;;2.00;;
53977;SDS011;39886;47.984;-1.586;2022-11-15T02:52:54;3.13;;;2.10;;
53977;SDS011;39886;47.984;-1.586;2022-11-15T03:00:28;3.80;;;1.70;;
53977;SDS011;39886;47.984;-1.586;2022-11-15T03:03:13;3.53;;;1.73;;
53977;SDS011;39886;47.984;-1.586;2022-11-15T03:11:24;3.47;;;1.90;;
53977;SDS011;39886;47.984;-1.586;2022-11-15T03:13:58;3.08;;;1.90;;
53977;SDS011;39886;47.984;-1.586;2022-11-15T03:19:03;2.47;;;1.63;;
53977;SDS011;39886;47.984;-1.586;2022-11-15T03:21:30;2.75;;;1.73;;
53977;SDS011;39886;47.984;-1.586;2022-11-15T03:23:58;2.78;;;1.65;;
53977;SDS011;39886;47.984;-1.586;2022-11-15T03:26:29;2.53;;;1.70;;
53977;SDS011;39886;47.984;-1.586;2022-11-15T03:28:57;2.00;;;1.50;;
53977;SDS011;39886;47.984;-1.586;2022-11-15T03:31:29;2.10;;;1.58;;
53977;SDS011;39886;47.984;-1.586;2022-11-15T03:34:25;2.08;;;1.45;;
53977;SDS011;39886;47.984;-1.586;2022-11-15T03:37:04;2.50;;;1.77;;
53977;SDS011;39886;47.984;-1.586;2022-11-15T03:39:32;3.38;;;1.80;;
53977;SDS011;39886;47.984;-1.586;2022-11-15T03:47:34;2.20;;;1.70;;
53977;SDS011;39886;47.984;-1.586;2022-11-15T03:50:07;3.65;;;1.77;;
53977;SDS011;39886;47.984;-1.586;2022-11-15T03:52:38;3.38;;;1.75;;
53977;SDS011;39886;47.984;-1.586;2022-11-15T03:55:07;3.15;;;1.80;;
53977;SDS011;39886;47.984;-1.586;2022-11-15T03:57:37;3.83;;;1.83;;
53977;SDS011;39886;47.984;-1.586;2022-11-15T04:00:03;2.05;;;1.60;;
53977;SDS011;39886;47.984;-1.586;2022-11-15T04:02:30;2.00;;;1.48;;
53977;SDS011;39886;47.984;-1.586;2022-11-15T04:04:56;3.35;;;1.60;;
53977;SDS011;39886;47.984;-1.586;2022-11-15T04:07:21;2.60;;;1.60;;
53977;SDS011;39886;47.984;-1.586;2022-11-15T04:09:47;2.78;;;1.60;;
53977;SDS011;39886;47.984;-1.586;2022-11-15T04:12:29;1.92;;;1.50;;
53977;SDS011;39886;47.984;-1.586;2022-11-15T04:15:09;2.58;;;1.60;;
53977;SDS011;39886;47.984;-1.586;2022-11-15T04:17:46;2.38;;;1.60;;
53977;SDS011;39886;47.984;-1.586;2022-11-15T04:20:17;2.17;;;1.40;;
53977;SDS011;39886;47.984;-1.586;2022-11-15T04:23:02;3.20;;;1.70;;
53977;SDS011;39886;47.984;-1.586;2022-11-15T04:25:51;2.28;;;1.33;;
53977;SDS011;39886;47.984;-1.586;2022-11-15T04:28:21;1.70;;;1.40;;
53977;SDS011;39886;47.984;-1.586;2022-11-15T04:30:47;2.55;;;1.50;;
53977;SDS011;39886;47.984;-1.586;2022-11-15T04:33:13;3.53;;;1.35;;
53977;SDS011;39886;47.984;-1.586;2022-11-15T04:35:39;1.92;;;1.30;;
53977;SDS011;39886;47.984;-1.586;2022-11-15T04:38:07;2.50;;;1.60;;
53977;SDS011;39886;47.984;-1.586;2022-11-15T04:40:34;3.10;;;1.30;;
53977;SDS011;39886;47.984;-1.586;2022-11-15T04:43:01;2.80;;;1.58;;
53977;SDS011;39886;47.984;-1.586;2022-11-15T04:45:26;1.95;;;1.65;;
53977;SDS011;39886;47.984;-1.586;2022-11-15T04:47:52;2.00;;;1.40;;
53977;SDS011;39886;47.984;-1.586;2022-11-15T04:50:18;2.25;;;1.30;;
53977;SDS011;39886;47.984;-1.586;2022-11-15T04:52:49;3.30;;;1.60;;
53977;SDS011;39886;47.984;-1.586;2022-11-15T04:55:16;2.67;;;1.50;;
53977;SDS011;39886;47.984;-1.586;2022-11-15T04:57:42;2.90;;;1.58;;
53977;SDS011;39886;47.984;-1.586;2022-11-15T05:00:09;4.88;;;1.45;;
53977;SDS011;39886;47.984;-1.586;2022-11-15T05:02:39;2.30;;;1.30;;
53977;SDS011;39886;47.984;-1.586;2022-11-15T05:05:24;1.77;;;1.30;;
53977;SDS011;39886;47.984;-1.586;2022-11-15T05:07:50;2.05;;;1.27;;
53977;SDS011;39886;47.984;-1.586;2022-11-15T05:10:16;3.00;;;1.50;;
53977;SDS011;39886;47.984;-1.586;2022-11-15T05:12:42;2.50;;;1.60;;
53977;SDS011;39886;47.984;-1.586;2022-11-15T05:15:07;2.10;;;1.40;;
53977;SDS011;39886;47.984;-1.586;2022-11-15T05:17:33;1.95;;;1.40;;
53977;SDS011;39886;47.984;-1.586;2022-11-15T05:19:59;1.70;;;1.10;;
53977;SDS011;39886;47.984;-1.586;2022-11-15T05:22:25;1.95;;;1.40;;
53977;SDS011;39886;47.984;-1.586;2022-11-15T05:24:51;3.45;;;1.13;;
53977;SDS011;39886;47.984;-1.586;2022-11-15T05:27:17;2.10;;;1.20;;
53977;SDS011;39886;47.984;-1.586;2022-11-15T05:29:43;2.83;;;1.40;;
53977;SDS011;39886;47.984;-1.586;2022-11-15T05:32:10;1.58;;;1.40;;
53977;SDS011;39886;47.984;-1.586;2022-11-15T05:34:37;1.63;;;1.30;;
53977;SDS011;39886;47.984;-1.586;2022-11-15T05:37:03;2.78;;;1.40;;
53977;SDS011;39886;47.984;-1.586;2022-11-15T05:39:29;2.10;;;1.30;;
53977;SDS011;39886;47.984;-1.586;2022-11-15T05:42:04;1.92;;;1.27;;
53977;SDS011;39886;47.984;-1.586;2022-11-15T05:44:33;1.67;;;1.38;;
53977;SDS011;39886;47.984;-1.586;2022-11-15T05:47:01;1.73;;;1.20;;
53977;SDS011;39886;47.984;-1.586;2022-11-15T05:49:30;4.28;;;1.60;;
53977;SDS011;39886;47.984;-1.586;2022-11-15T05:51:59;1.92;;;1.20;;
53977;SDS011;39886;47.984;-1.586;2022-11-15T05:54:25;1.50;;;1.27;;
53977;SDS011;39886;47.984;-1.586;2022-11-15T05:56:51;2.53;;;1.30;;
53977;SDS011;39886;47.984;-1.586;2022-11-15T05:59:18;2.70;;;1.30;;
53977;SDS011;39886;47.984;-1.586;2022-11-15T06:01:45;2.53;;;1.25;;
53977;SDS011;39886;47.984;-1.586;2022-11-15T06:04:11;1.77;;;1.25;;
53977;SDS011;39886;47.984;-1.586;2022-11-15T06:06:36;2.72;;;1.20;;
53977;SDS011;39886;47.984;-1.586;2022-11-15T06:09:02;2.17;;;1.30;;
53977;SDS011;39886;47.984;-1.586;2022-11-15T06:11:28;2.42;;;1.10;;
53977;SDS011;39886;47.984;-1.586;2022-11-15T06:13:53;1.42;;;1.20;;
53977;SDS011;39886;47.984;-1.586;2022-11-15T06:16:19;2.53;;;1.70;;
53977;SDS011;39886;47.984;-1.586;2022-11-15T06:18:45;1.67;;;1.30;;
53977;SDS011;39886;47.984;-1.586;2022-11-15T06:21:11;1.55;;;1.17;;
53977;SDS011;39886;47.984;-1.586;2022-11-15T06:23:36;3.10;;;1.33;;
53977;SDS011;39886;47.984;-1.586;2022-11-15T06:26:02;1.95;;;1.40;;
53977;SDS011;39886;47.984;-1.586;2022-11-15T06:28:29;2.90;;;1.80;;
53977;SDS011;39886;47.984;-1.586;2022-11-15T06:30:56;1.50;;;1.13;;
53977;SDS011;39886;47.984;-1.586;2022-11-15T06:33:27;2.40;;;1.13;;
53977;SDS011;39886;47.984;-1.586;2022-11-15T06:35:52;1.95;;;1.23;;
53977;SDS011;39886;47.984;-1.586;2022-11-15T06:38:18;2.25;;;1.20;;
53977;SDS011;39886;47.984;-1.586;2022-11-15T06:40:44;2.50;;;1.52;;
53977;SDS011;39886;47.984;-1.586;2022-11-15T06:43:09;2.25;;;1.27;;
53977;SDS011;39886;47.984;-1.586;2022-11-15T06:45:35;2.20;;;1.20;;
53977;SDS011;39886;47.984;-1.586;2022-11-15T06:48:01;2.58;;;1.23;;
53977;SDS011;39886;47.984;-1.586;2022-11-15T06:50:27;1.70;;;1.13;;
53977;SDS011;39886;47.984;-1.586;2022-11-15T06:52:53;2.25;;;1.40;;
53977;SDS011;39886;47.984;-1.586;2022-11-15T06:55:19;2.60;;;1.33;;
53977;SDS011;39886;47.984;-1.586;2022-11-15T06:57:51;2.92;;;1.33;;
53977;SDS011;39886;47.984;-1.586;2022-11-15T07:00:18;2.03;;;1.20;;
53977;SDS011;39886;47.984;-1.586;2022-11-15T07:02:45;1.65;;;1.20;;
53977;SDS011;39886;47.984;-1.586;2022-11-15T07:05:11;1.33;;;1.10;;
53977;SDS011;39886;47.984;-1.586;2022-11-15T07:07:38;1.55;;;1.30;;
53977;SDS011;39886;47.984;-1.586;2022-11-15T07:10:04;1.60;;;1.20;;
53977;SDS011;39886;47.984;-1.586;2022-11-15T07:12:30;1.60;;;1.40;;
53977;SDS011;39886;47.984;-1.586;2022-11-15T07:14:55;2.15;;;1.33;;
53977;SDS011;39886;47.984;-1.586;2022-11-15T07:17:21;2.25;;;1.20;;
53977;SDS011;39886;47.984;-1.586;2022-11-15T07:19:47;2.45;;;1.33;;
53977;SDS011;39886;47.984;-1.586;2022-11-15T07:22:13;1.33;;;1.23;;
53977;SDS011;39886;47.984;-1.586;2022-11-15T07:24:38;1.88;;;1.23;;
53977;SDS011;39886;47.984;-1.586;2022-11-15T07:27:04;1.27;;;1.02;;
53977;SDS011;39886;47.984;-1.586;2022-11-15T07:29:30;2.20;;;1.33;;
53977;SDS011;39886;47.984;-1.586;2022-11-15T07:31:55;2.22;;;1.20;;
53977;SDS011;39886;47.984;-1.586;2022-11-15T07:34:21;2.58;;;1.45;;
53977;SDS011;39886;47.984;-1.586;2022-11-15T07:36:47;3.88;;;1.20;;
53977;SDS011;39886;47.984;-1.586;2022-11-15T07:39:13;2.92;;;1.00;;
53977;SDS011;39886;47.984;-1.586;2022-11-15T07:41:39;4.05;;;1.10;;
53977;SDS011;39886;47.984;-1.586;2022-11-15T07:44:05;3.63;;;1.20;;
53977;SDS011;39886;47.984;-1.586;2022-11-15T07:46:30;2.67;;;1.10;;
53977;SDS011;39886;47.984;-1.586;2022-11-15T07:48:57;4.20;;;1.20;;
53977;SDS011;39886;47.984;-1.586;2022-11-15T07:51:22;2.70;;;1.10;;
53977;SDS011;39886;47.984;-1.586;2022-11-15T07:53:48;2.50;;;1.30;;
53977;SDS011;39886;47.984;-1.586;2022-11-15T07:56:14;6.30;;;1.60;;
53977;SDS011;39886;47.984;-1.586;2022-11-15T07:58:40;3.70;;;1.20;;
53977;SDS011;39886;47.984;-1.586;2022-11-15T08:01:07;2.22;;;1.27;;
53977;SDS011;39886;47.984;-1.586;2022-11-15T08:03:35;1.80;;;1.13;;
53977;SDS011;39886;47.984;-1.586;2022-11-15T08:06:01;2.80;;;1.20;;
53977;SDS011;39886;47.984;-1.586;2022-11-15T08:08:27;1.85;;;1.13;;
53977;SDS011;39886;47.984;-1.586;2022-11-15T08:10:53;3.92;;;1.13;;
53977;SDS011;39886;47.984;-1.586;2022-11-15T08:13:19;4.85;;;1.38;;
53977;SDS011;39886;47.984;-1.586;2022-11-15T08:15:46;1.95;;;1.00;;
53977;SDS011;39886;47.984;-1.586;2022-11-15T08:18:15;3.63;;;1.25;;
53977;SDS011;39886;47.984;-1.586;2022-11-15T08:20:41;2.60;;;1.30;;
53977;SDS011;39886;47.984;-1.586;2022-11-15T08:23:08;6.53;;;1.27;;
53977;SDS011;39886;47.984;-1.586;2022-11-15T08:25:35;2.70;;;1.10;;
53977;SDS011;39886;47.984;-1.586;2022-11-15T08:28:02;2.42;;;1.00;;
53977;SDS011;39886;47.984;-1.586;2022-11-15T08:30:29;2.28;;;1.20;;
53977;SDS011;39886;47.984;-1.586;2022-11-15T08:32:59;1.67;;;1.00;;
53977;SDS011;39886;47.984;-1.586;2022-11-15T08:35:25;9.25;;;1.27;;
53977;SDS011;39886;47.984;-1.586;2022-11-15T08:37:52;2.35;;;1.20;;
53977;SDS011;39886;47.984;-1.586;2022-11-15T08:40:18;4.10;;;1.10;;
53977;SDS011;39886;47.984;-1.586;2022-11-15T08:42:48;5.30;;;1.20;;
53977;SDS011;39886;47.984;-1.586;2022-11-15T08:45:14;4.35;;;1.10;;
53977;SDS011;39886;47.984;-1.586;2022-11-15T08:47:40;4.28;;;1.25;;
53977;SDS011;39886;47.984;-1.586;2022-11-15T08:50:06;1.63;;;1.20;;
53977;SDS011;39886;47.984;-1.586;2022-11-15T08:52:32;3.40;;;1.08;;
53977;SDS011;39886;47.984;-1.586;2022-11-15T08:54:58;1.08;;;0.90;;
53977;SDS011;39886;47.984;-1.586;2022-11-15T08:57:24;2.42;;;1.10;;
53977;SDS011;39886;47.984;-1.586;2022-11-15T08:59:49;5.95;;;1.10;;
53977;SDS011;39886;47.984;-1.586;2022-11-15T09:02:15;2.83;;;1.60;;
53977;SDS011;39886;47.984;-1.586;2022-11-15T09:04:41;2.17;;;1.08;;
53977;SDS011;39886;47.984;-1.586;2022-11-15T09:07:08;1.83;;;1.08;;
53977;SDS011;39886;47.984;-1.586;2022-11-15T09:09:35;1.25;;;0.90;;
53977;SDS011;39886;47.984;-1.586;2022-11-15T09:12:01;5.35;;;1.30;;
53977;SDS011;39886;47.984;-1.586;2022-11-15T09:14:27;2.30;;;1.10;;
53977;SDS011;39886;47.984;-1.586;2022-11-15T09:16:53;3.55;;;1.27;;
53977;SDS011;39886;47.984;-1.586;2022-11-15T09:19:19;2.50;;;1.23;;
53977;SDS011;39886;47.984;-1.586;2022-11-15T09:21:44;3.08;;;1.17;;
53977;SDS011;39886;47.984;-1.586;2022-11-15T09:24:10;3.33;;;1.10;;
53977;SDS011;39886;47.984;-1.586;2022-11-15T09:26:36;3.00;;;0.90;;
53977;SDS011;39886;47.984;-1.586;2022-11-15T09:29:01;1.85;;;1.00;;
53977;SDS011;39886;47.984;-1.586;2022-11-15T09:31:27;2.30;;;1.20;;
53977;SDS011;39886;47.984;-1.586;2022-11-15T09:33:54;2.55;;;0.90;;
53977;SDS011;39886;47.984;-1.586;2022-11-15T09:36:20;3.90;;;1.30;;
53977;SDS011;39886;47.984;-1.586;2022-11-15T09:38:46;1.15;;;0.90;;
53977;SDS011;39886;47.984;-1.586;2022-11-15T09:46:38;2.65;;;1.10;;
53977;SDS011;39886;47.984;-1.586;2022-11-15T09:49:15;13.82;;;1.17;;
53977;SDS011;39886;47.984;-1.586;2022-11-15T09:51:47;3.15;;;1.10;;
53977;SDS011;39886;47.984;-1.586;2022-11-15T09:54:34;3.08;;;0.98;;
53977;SDS011;39886;47.984;-1.586;2022-11-15T09:57:04;1.77;;;1.20;;
53977;SDS011;39886;47.984;-1.586;2022-11-15T09:59:46;4.28;;;0.95;;
53977;SDS011;39886;47.984;-1.586;2022-11-15T10:05:16;3.10;;;1.00;;
53977;SDS011;39886;47.984;-1.586;2022-11-15T10:12:57;2.97;;;1.23;;
53977;SDS011;39886;47.984;-1.586;2022-11-15T10:15:24;3.85;;;0.82;;
53977;SDS011;39886;47.984;-1.586;2022-11-15T10:18:13;2.75;;;1.02;;
53977;SDS011;39886;47.984;-1.586;2022-11-15T10:20:48;2.15;;;0.75;;
53977;SDS011;39886;47.984;-1.586;2022-11-15T10:23:19;3.28;;;0.95;;
53977;SDS011;39886;47.984;-1.586;2022-11-15T10:25:46;2.85;;;1.10;;
53977;SDS011;39886;47.984;-1.586;2022-11-15T10:28:22;5.28;;;0.95;;
53977;SDS011;39886;47.984;-1.586;2022-11-15T10:30:53;2.88;;;1.10;;
53977;SDS011;39886;47.984;-1.586;2022-11-15T10:33:23;2.28;;;1.20;;
53977;SDS011;39886;47.984;-1.586;2022-11-15T10:41:16;3.78;;;1.10;;
53977;SDS011;39886;47.984;-1.586;2022-11-15T10:44:01;2.67;;;1.10;;
53977;SDS011;39886;47.984;-1.586;2022-11-15T10:46:35;2.85;;;1.20;;
53977;SDS011;39886;47.984;-1.586;2022-11-15T10:49:15;1.67;;;1.08;;
53977;SDS011;39886;47.984;-1.586;2022-11-15T10:51:53;4.45;;;1.42;;
53977;SDS011;39886;47.984;-1.586;2022-11-15T10:54:33;7.47;;;1.67;;
53977;SDS011;39886;47.984;-1.586;2022-11-15T10:57:07;4.85;;;1.63;;
53977;SDS011;39886;47.984;-1.586;2022-11-15T10:59:48;2.33;;;1.60;;
53977;SDS011;39886;47.984;-1.586;2022-11-15T11:02:29;2.57;;;1.17;;
53977;SDS011;39886;47.984;-1.586;2022-11-15T11:05:24;5.03;;;2.13;;
53977;SDS011;39886;47.984;-1.586;2022-11-15T11:10:27;2.85;;;1.20;;
53977;SDS011;39886;47.984;-1.586;2022-11-15T11:12:53;3.10;;;1.40;;
53977;SDS011;39886;47.984;-1.586;2022-11-15T11:15:19;3.50;;;1.42;;
53977;SDS011;39886;47.984;-1.586;2022-11-15T11:20:41;3.85;;;1.50;;
53977;SDS011;39886;47.984;-1.586;2022-11-15T11:26:16;3.00;;;1.40;;
53977;SDS011;39886;47.984;-1.586;2022-11-15T11:29:13;5.93;;;1.40;;
53977;SDS011;39886;47.984;-1.586;2022-11-15T11:35:26;5.55;;;1.50;;
53977;SDS011;39886;47.984;-1.586;2022-11-15T11:38:15;3.65;;;1.50;;
53977;SDS011;39886;47.984;-1.586;2022-11-15T11:48:53;2.80;;;1.40;;
53977;SDS011;39886;47.984;-1.586;2022-11-15T11:51:28;2.97;;;1.30;;
53977;SDS011;39886;47.984;-1.586;2022-11-15T11:56:39;6.38;;;1.50;;
53977;SDS011;39886;47.984;-1.586;2022-11-15T11:59:19;3.42;;;1.08;;
53977;SDS011;39886;47.984;-1.586;2022-11-15T12:01:50;3.78;;;1.50;;
53977;SDS011;39886;47.984;-1.586;2022-11-15T12:04:29;3.72;;;1.40;;
53977;SDS011;39886;47.984;-1.586;2022-11-15T12:15:22;3.53;;;1.40;;
53977;SDS011;39886;47.984;-1.586;2022-11-15T12:17:58;3.50;;;1.35;;
53977;SDS011;39886;47.984;-1.586;2022-11-15T12:20:27;3.08;;;1.27;;
53977;SDS011;39886;47.984;-1.586;2022-11-15T12:23:00;5.43;;;1.20;;
53977;SDS011;39886;47.984;-1.586;2022-11-15T12:25:33;4.28;;;1.35;;
53977;SDS011;39886;47.984;-1.586;2022-11-15T12:28:39;2.50;;;1.30;;
53977;SDS011;39886;47.984;-1.586;2022-11-15T12:33:47;5.75;;;1.60;;
53977;SDS011;39886;47.984;-1.586;2022-11-15T12:41:17;5.07;;;1.40;;
53977;SDS011;39886;47.984;-1.586;2022-11-15T12:43:44;2.00;;;1.00;;
53977;SDS011;39886;47.984;-1.586;2022-11-15T12:46:13;3.22;;;1.23;;
53977;SDS011;39886;47.984;-1.586;2022-11-15T12:48:46;1.73;;;1.08;;
53977;SDS011;39886;47.984;-1.586;2022-11-15T12:51:20;4.10;;;1.20;;
53977;SDS011;39886;47.984;-1.586;2022-11-15T13:04:51;2.85;;;1.13;;
53977;SDS011;39886;47.984;-1.586;2022-11-15T13:10:51;3.15;;;1.27;;
53977;SDS011;39886;47.984;-1.586;2022-11-15T13:13:01;3.83;;;1.27;;
53977;SDS011;39886;47.984;-1.586;2022-11-15T13:18:32;5.43;;;2.13;;
53977;SDS011;39886;47.984;-1.586;2022-11-15T13:21:00;2.85;;;1.13;;
53977;SDS011;39886;47.984;-1.586;2022-11-15T13:23:51;3.65;;;1.45;;
53977;SDS011;39886;47.984;-1.586;2022-11-15T13:26:18;8.63;;;1.35;;
53977;SDS011;39886;47.984;-1.586;2022-11-15T13:28:46;2.88;;;1.20;;
53977;SDS011;39886;47.984;-1.586;2022-11-15T13:31:27;2.42;;;1.17;;
53977;SDS011;39886;47.984;-1.586;2022-11-15T13:36:51;3.60;;;1.30;;
53977;SDS011;39886;47.984;-1.586;2022-11-15T13:39:30;4.25;;;1.25;;
53977;SDS011;39886;47.984;-1.586;2022-11-15T13:41:57;4.93;;;1.40;;
53977;SDS011;39886;47.984;-1.586;2022-11-15T13:44:25;3.63;;;1.30;;
53977;SDS011;39886;47.984;-1.586;2022-11-15T13:49:40;5.30;;;1.63;;
53977;SDS011;39886;47.984;-1.586;2022-11-15T13:52:07;3.08;;;1.50;;
53977;SDS011;39886;47.984;-1.586;2022-11-15T13:54:46;4.57;;;1.33;;
53977;SDS011;39886;47.984;-1.586;2022-11-15T13:57:19;3.38;;;1.30;;
53977;SDS011;39886;47.984;-1.586;2022-11-15T14:02:24;3.45;;;1.42;;
53977;SDS011;39886;47.984;-1.586;2022-11-15T14:04:59;3.35;;;1.20;;
53977;SDS011;39886;47.984;-1.586;2022-11-15T14:07:29;2.78;;;1.20;;
53977;SDS011;39886;47.984;-1.586;2022-11-15T14:09:55;3.55;;;1.15;;
53977;SDS011;39886;47.984;-1.586;2022-11-15T14:12:25;4.63;;;1.50;;
53977;SDS011;39886;47.984;-1.586;2022-11-15T14:14:59;3.05;;;1.33;;
53977;SDS011;39886;47.984;-1.586;2022-11-15T14:19:53;3.85;;;1.15;;
53977;SDS011;39886;47.984;-1.586;2022-11-15T14:27:40;4.53;;;1.48;;
53977;SDS011;39886;47.984;-1.586;2022-11-15T14:30:12;5.13;;;1.35;;
53977;SDS011;39886;47.984;-1.586;2022-11-15T14:37:45;3.58;;;1.20;;
53977;SDS011;39886;47.984;-1.586;2022-11-15T14:40:15;3.72;;;1.40;;
53977;SDS011;39886;47.984;-1.586;2022-11-15T14:42:43;3.13;;;1.38;;
53977;SDS011;39886;47.984;-1.586;2022-11-15T14:47:43;5.47;;;1.10;;
53977;SDS011;39886;47.984;-1.586;2022-11-15T14:52:39;3.00;;;1.15;;
53977;SDS011;39886;47.984;-1.586;2022-11-15T14:55:13;5.38;;;1.33;;
53977;SDS011;39886;47.984;-1.586;2022-11-15T14:58:06;4.03;;;1.15;;
53977;SDS011;39886;47.984;-1.586;2022-11-15T15:00:33;2.60;;;1.30;;
53977;SDS011;39886;47.984;-1.586;2022-11-15T15:03:00;3.47;;;1.35;;
53977;SDS011;39886;47.984;-1.586;2022-11-15T15:05:30;5.22;;;1.85;;
53977;SDS011;39886;47.984;-1.586;2022-11-15T15:07:58;3.83;;;1.23;;
53977;SDS011;39886;47.984;-1.586;2022-11-15T15:10:24;3.88;;;1.20;;
53977;SDS011;39886;47.984;-1.586;2022-11-15T15:12:54;3.13;;;1.23;;
53977;SDS011;39886;47.984;-1.586;2022-11-15T15:15:23;3.20;;;1.20;;
53977;SDS011;39886;47.984;-1.586;2022-11-15T15:17:50;5.20;;;1.25;;
53977;SDS011;39886;47.984;-1.586;2022-11-15T15:20:16;4.65;;;1.45;;
53977;SDS011;39886;47.984;-1.586;2022-11-15T15:22:42;3.35;;;1.30;;
53977;SDS011;39886;47.984;-1.586;2022-11-15T15:25:40;2.80;;;1.17;;
53977;SDS011;39886;47.984;-1.586;2022-11-15T15:28:00;3.28;;;1.40;;
53977;SDS011;39886;47.984;-1.586;2022-11-15T15:30:27;8.27;;;1.40;;
53977;SDS011;39886;47.984;-1.586;2022-11-15T15:32:54;2.78;;;1.15;;
53977;SDS011;39886;47.984;-1.586;2022-11-15T15:35:20;4.82;;;1.48;;
53977;SDS011;39886;47.984;-1.586;2022-11-15T15:37:47;2.95;;;1.40;;
53977;SDS011;39886;47.984;-1.586;2022-11-15T15:40:17;2.85;;;1.27;;
53977;SDS011;39886;47.984;-1.586;2022-11-15T15:42:45;2.30;;;1.45;;
53977;SDS011;39886;47.984;-1.586;2022-11-15T15:45:11;8.82;;;1.65;;
53977;SDS011;39886;47.984;-1.586;2022-11-15T15:47:38;5.30;;;1.67;;
53977;SDS011;39886;47.984;-1.586;2022-11-15T15:50:04;4.95;;;1.48;;
53977;SDS011;39886;47.984;-1.586;2022-11-15T15:52:48;4.07;;;1.15;;
53977;SDS011;39886;47.984;-1.586;2022-11-15T15:55:15;4.38;;;1.50;;
53977;SDS011;39886;47.984;-1.586;2022-11-15T15:57:40;2.63;;;1.00;;
53977;SDS011;39886;47.984;-1.586;2022-11-15T16:00:06;4.90;;;1.10;;
53977;SDS011;39886;47.984;-1.586;2022-11-15T16:02:33;5.97;;;2.03;;
53977;SDS011;39886;47.984;-1.586;2022-11-15T16:04:59;1.80;;;1.10;;
53977;SDS011;39886;47.984;-1.586;2022-11-15T16:07:25;4.38;;;1.40;;
53977;SDS011;39886;47.984;-1.586;2022-11-15T16:09:53;2.30;;;1.42;;
53977;SDS011;39886;47.984;-1.586;2022-11-15T16:12:26;7.60;;;1.30;;
53977;SDS011;39886;47.984;-1.586;2022-11-15T16:14:55;4.28;;;1.10;;
53977;SDS011;39886;47.984;-1.586;2022-11-15T16:17:21;4.32;;;1.20;;
53977;SDS011;39886;47.984;-1.586;2022-11-15T16:19:49;3.28;;;1.30;;
53977;SDS011;39886;47.984;-1.586;2022-11-15T16:22:15;6.53;;;1.42;;
53977;SDS011;39886;47.984;-1.586;2022-11-15T16:24:41;2.38;;;1.13;;
53977;SDS011;39886;47.984;-1.586;2022-11-15T16:27:17;5.00;;;1.13;;
53977;SDS011;39886;47.984;-1.586;2022-11-15T16:29:44;4.40;;;1.45;;
53977;SDS011;39886;47.984;-1.586;2022-11-15T16:32:11;2.65;;;1.10;;
53977;SDS011;39886;47.984;-1.586;2022-11-15T16:34:37;2.85;;;1.13;;
53977;SDS011;39886;47.984;-1.586;2022-11-15T16:37:03;6.45;;;1.40;;
53977;SDS011;39886;47.984;-1.586;2022-11-15T16:39:29;2.53;;;1.15;;
53977;SDS011;39886;47.984;-1.586;2022-11-15T16:41:59;3.90;;;1.20;;
53977;SDS011;39886;47.984;-1.586;2022-11-15T16:44:25;3.72;;;1.13;;
53977;SDS011;39886;47.984;-1.586;2022-11-15T16:46:51;5.97;;;1.35;;
53977;SDS011;39886;47.984;-1.586;2022-11-15T16:49:18;8.23;;;1.60;;
53977;SDS011;39886;47.984;-1.586;2022-11-15T16:51:45;3.45;;;1.30;;
53977;SDS011;39886;47.984;-1.586;2022-11-15T16:54:12;4.95;;;1.60;;
53977;SDS011;39886;47.984;-1.586;2022-11-15T16:56:38;3.50;;;1.27;;
53977;SDS011;39886;47.984;-1.586;2022-11-15T16:59:05;4.45;;;1.33;;